Weather at Cognac-Châteaubernard (BA 709) Air Base

Public forecast

Using degrees Celsius for public forecast. Weather courtesy of forecast.io.

Current aviation weather report (METAR) for Cognac-Châteaubernard (BA 709) Air Base

Retrieved 2021/07/31 04:30 UTC (28 minutes ago):

LFBG 310430Z AUTO 00000KT 9999 ///TCU 13/12 Q1015

Aviation forecast (TAF) for Cognac-Châteaubernard (BA 709) Air Base

Forecast is more than 12 hours old.

Retrieved 2021/07/30 13:27 UTC (16 hours ago):

TAF TAF LFBG 301323Z 3013/3109 CNL